Terminal Aerodrome Forecast
Issued by NWS Wilmington, OH

Current Version | Previous Version | Text Only | Print | Product List | Glossary On
Versions: 1 2 3 4 5 6 7 8 9 10 11 12 13 14 15 16 17 18 19 20 21 22 23 24 25 26
000
FTUS41 KILN 270534
TAFCVG
TAF
KCVG 270534Z 2706/2812 18005KT P6SM FEW040 BKN150
      TEMPO 2709/2711 4SM BR
     FM271200 19006KT P6SM VCSH SCT040 BKN150
     FM271500 20008KT P6SM SCT040 BKN250
     FM280500 18004KT P6SM BKN150=

USA.gov is the U.S. government's official web portal to all federal, state and local government web resources and services.